Terminal Aerodrome Forecast
Issued by NWS

Home | Current Version | Previous Version | Text Only | Print | Product List | Glossary On
Versions: 1 2 3 4 5 6 7 8 9 10 11 12 13 14 15 16 17 18
000
FTUS44 KLIX 211700
TAFGPT
TAF
KGPT 211723Z 2118/2218 07006KT P6SM SCT015 BKN025
      TEMPO 2118/2122 BKN015
     FM220400 09006KT P6SM BKN010
     FM221100 00000KT 3SM BR BKN005
     FM221700 15006KT P6SM BKN006=

USA.gov is the U.S. government's official web portal to all federal, state and local government web resources and services.